sensor_id;sensor_type;location;lat;lon;timestamp;pressure;altitude;pressure_sealevel;temperature;humidity
11712;BME280;5912;51.034;6.984;2023-02-17T00:01:41;77278.53;;;-142.13;68.14
11712;BME280;5912;51.034;6.984;2023-02-17T00:04:06;77272.50;;;-142.13;68.21
11712;BME280;5912;51.034;6.984;2023-02-17T00:06:32;77264.44;;;-142.13;67.82
11712;BME280;5912;51.034;6.984;2023-02-17T00:08:57;77262.41;;;-142.13;67.82
11712;BME280;5912;51.034;6.984;2023-02-17T00:11:24;77256.38;;;-142.13;67.41
11712;BME280;5912;51.034;6.984;2023-02-17T00:13:51;77246.31;;;-142.13;67.35
11712;BME280;5912;51.034;6.984;2023-02-17T00:16:20;77252.34;;;-142.13;67.38
11712;BME280;5912;51.034;6.984;2023-02-17T00:18:50;77236.25;;;-142.13;67.08
11712;BME280;5912;51.034;6.984;2023-02-17T00:21:18;77234.22;;;-142.13;67.04
11712;BME280;5912;51.034;6.984;2023-02-17T00:23:45;77238.25;;;-142.13;67.07
11712;BME280;5912;51.034;6.984;2023-02-17T00:26:11;77230.19;;;-142.13;67.04
11712;BME280;5912;51.034;6.984;2023-02-17T00:28:37;77226.19;;;-142.13;66.69
11712;BME280;5912;51.034;6.984;2023-02-17T00:31:10;77220.13;;;-142.13;66.71
11712;BME280;5912;51.034;6.984;2023-02-17T00:33:37;77224.16;;;-142.13;66.87
11712;BME280;5912;51.034;6.984;2023-02-17T00:36:07;77212.06;;;-142.13;66.60
11712;BME280;5912;51.034;6.984;2023-02-17T00:38:33;77214.09;;;-142.13;66.80
11712;BME280;5912;51.034;6.984;2023-02-17T00:40:59;77214.09;;;-142.13;66.81
11712;BME280;5912;51.034;6.984;2023-02-17T00:43:24;77224.16;;;-142.13;67.03
11712;BME280;5912;51.034;6.984;2023-02-17T00:45:50;77222.16;;;-142.13;67.27
11712;BME280;5912;51.034;6.984;2023-02-17T00:48:15;77226.19;;;-142.13;67.29
11712;BME280;5912;51.034;6.984;2023-02-17T00:50:40;77230.19;;;-142.13;67.51
11712;BME280;5912;51.034;6.984;2023-02-17T00:53:06;77236.25;;;-142.13;67.60
11712;BME280;5912;51.034;6.984;2023-02-17T00:55:31;77234.22;;;-142.13;67.64
11712;BME280;5912;51.034;6.984;2023-02-17T00:57:57;77234.22;;;-142.13;67.80
11712;BME280;5912;51.034;6.984;2023-02-17T01:00:22;77232.22;;;-142.13;67.98
11712;BME280;5912;51.034;6.984;2023-02-17T01:02:47;77238.25;;;-142.13;68.01
11712;BME280;5912;51.034;6.984;2023-02-17T01:05:13;77236.25;;;-142.13;68.44
11712;BME280;5912;51.034;6.984;2023-02-17T01:07:38;77232.22;;;-142.13;68.08
11712;BME280;5912;51.034;6.984;2023-02-17T01:10:04;77228.19;;;-142.13;68.35
11712;BME280;5912;51.034;6.984;2023-02-17T01:12:30;77218.13;;;-142.13;68.09
11712;BME280;5912;51.034;6.984;2023-02-17T01:14:55;77224.16;;;-142.13;68.22
11712;BME280;5912;51.034;6.984;2023-02-17T01:17:20;77222.16;;;-142.13;68.28
11712;BME280;5912;51.034;6.984;2023-02-17T01:19:46;77222.16;;;-142.13;68.30
11712;BME280;5912;51.034;6.984;2023-02-17T01:22:11;77216.09;;;-142.13;68.24
11712;BME280;5912;51.034;6.984;2023-02-17T01:24:37;77214.09;;;-142.13;68.26
11712;BME280;5912;51.034;6.984;2023-02-17T01:27:03;77208.06;;;-142.13;68.32
11712;BME280;5912;51.034;6.984;2023-02-17T01:29:28;77214.09;;;-142.13;68.40
11712;BME280;5912;51.034;6.984;2023-02-17T01:31:53;77212.06;;;-142.13;68.29
11712;BME280;5912;51.034;6.984;2023-02-17T01:34:19;77208.06;;;-142.13;68.09
11712;BME280;5912;51.034;6.984;2023-02-17T01:36:44;77210.06;;;-142.13;68.50
11712;BME280;5912;51.034;6.984;2023-02-17T01:39:15;77195.97;;;-142.13;68.11
11712;BME280;5912;51.034;6.984;2023-02-17T01:41:41;77185.91;;;-142.13;67.79
11712;BME280;5912;51.034;6.984;2023-02-17T01:44:17;77183.88;;;-142.13;67.57
11712;BME280;5912;51.034;6.984;2023-02-17T01:46:47;77181.88;;;-142.13;67.92
11712;BME280;5912;51.034;6.984;2023-02-17T01:52:18;77187.91;;;-142.13;67.95
11712;BME280;5912;51.034;6.984;2023-02-17T01:54:49;77187.91;;;-142.13;68.03
11712;BME280;5912;51.034;6.984;2023-02-17T01:57:18;77183.88;;;-142.13;68.09
11712;BME280;5912;51.034;6.984;2023-02-17T01:59:45;77175.84;;;-142.13;67.92
11712;BME280;5912;51.034;6.984;2023-02-17T02:02:12;77185.91;;;-142.13;68.28
11712;BME280;5912;51.034;6.984;2023-02-17T02:04:39;77183.88;;;-142.13;68.20
11712;BME280;5912;51.034;6.984;2023-02-17T02:07:12;77183.88;;;-142.13;68.29
11712;BME280;5912;51.034;6.984;2023-02-17T02:09:42;77185.91;;;-142.13;68.19
11712;BME280;5912;51.034;6.984;2023-02-17T02:12:17;77185.91;;;-142.13;68.33
11712;BME280;5912;51.034;6.984;2023-02-17T02:14:42;77183.88;;;-142.13;68.38
11712;BME280;5912;51.034;6.984;2023-02-17T02:20:51;77173.81;;;-142.13;68.12
11712;BME280;5912;51.034;6.984;2023-02-17T02:26:43;77175.84;;;-142.13;68.12
11712;BME280;5912;51.034;6.984;2023-02-17T02:31:45;77175.84;;;-142.13;68.50
11712;BME280;5912;51.034;6.984;2023-02-17T02:34:14;77173.81;;;-142.13;68.48
11712;BME280;5912;51.034;6.984;2023-02-17T02:36:49;77159.72;;;-142.13;68.33
11712;BME280;5912;51.034;6.984;2023-02-17T02:39:36;77167.78;;;-142.13;68.33
11712;BME280;5912;51.034;6.984;2023-02-17T02:42:05;77161.72;;;-142.13;68.27
11712;BME280;5912;51.034;6.984;2023-02-17T02:44:32;77165.75;;;-142.13;68.44
11712;BME280;5912;51.034;6.984;2023-02-17T02:47:05;77169.78;;;-142.13;68.39
11712;BME280;5912;51.034;6.984;2023-02-17T02:49:34;77165.75;;;-142.13;68.52
11712;BME280;5912;51.034;6.984;2023-02-17T03:00:33;77151.66;;;-142.13;68.47
11712;BME280;5912;51.034;6.984;2023-02-17T03:03:12;77155.69;;;-142.13;68.42
11712;BME280;5912;51.034;6.984;2023-02-17T03:05:46;77143.63;;;-142.13;68.41
11712;BME280;5912;51.034;6.984;2023-02-17T03:08:22;77147.63;;;-142.13;68.62
11712;BME280;5912;51.034;6.984;2023-02-17T03:10:52;77157.72;;;-142.13;68.51
11712;BME280;5912;51.034;6.984;2023-02-17T03:13:19;77151.66;;;-142.13;68.52
11712;BME280;5912;51.034;6.984;2023-02-17T03:15:45;77159.72;;;-142.13;68.66
11712;BME280;5912;51.034;6.984;2023-02-17T03:18:10;77151.66;;;-142.13;68.61
11712;BME280;5912;51.034;6.984;2023-02-17T03:20:40;77159.72;;;-142.13;68.68
11712;BME280;5912;51.034;6.984;2023-02-17T03:23:07;77155.69;;;-142.13;68.65
11712;BME280;5912;51.034;6.984;2023-02-17T03:25:33;77153.69;;;-142.13;68.71
11712;BME280;5912;51.034;6.984;2023-02-17T03:27:58;77151.66;;;-142.13;68.65
11712;BME280;5912;51.034;6.984;2023-02-17T03:30:23;77153.69;;;-142.13;68.79
11712;BME280;5912;51.034;6.984;2023-02-17T03:32:49;77147.63;;;-142.13;68.54
11712;BME280;5912;51.034;6.984;2023-02-17T03:35:14;77143.63;;;-142.13;68.52
11712;BME280;5912;51.034;6.984;2023-02-17T03:37:39;77143.63;;;-142.13;68.58
11712;BME280;5912;51.034;6.984;2023-02-17T03:40:06;77141.59;;;-142.13;68.55
11712;BME280;5912;51.034;6.984;2023-02-17T03:42:32;77139.59;;;-142.13;68.66
11712;BME280;5912;51.034;6.984;2023-02-17T03:44:57;77139.59;;;-142.13;68.56
11712;BME280;5912;51.034;6.984;2023-02-17T03:47:22;77143.63;;;-142.13;68.40
11712;BME280;5912;51.034;6.984;2023-02-17T03:49:47;77145.63;;;-142.13;68.11
11712;BME280;5912;51.034;6.984;2023-02-17T03:52:13;77145.63;;;-142.13;68.14
11712;BME280;5912;51.034;6.984;2023-02-17T03:54:38;77131.53;;;-142.13;68.21
11712;BME280;5912;51.034;6.984;2023-02-17T03:57:04;77127.50;;;-142.13;68.14
11712;BME280;5912;51.034;6.984;2023-02-17T03:59:29;77127.50;;;-142.13;68.14
11712;BME280;5912;51.034;6.984;2023-02-17T04:01:54;77123.47;;;-142.13;68.18
11712;BME280;5912;51.034;6.984;2023-02-17T04:04:20;77121.47;;;-142.13;67.98
11712;BME280;5912;51.034;6.984;2023-02-17T04:06:45;77129.53;;;-142.13;68.09
11712;BME280;5912;51.034;6.984;2023-02-17T04:09:10;77131.53;;;-142.13;67.88
11712;BME280;5912;51.034;6.984;2023-02-17T04:11:36;77131.53;;;-142.13;67.76
11712;BME280;5912;51.034;6.984;2023-02-17T04:14:01;77127.50;;;-142.13;67.70
11712;BME280;5912;51.034;6.984;2023-02-17T04:16:27;77125.50;;;-142.13;67.74
11712;BME280;5912;51.034;6.984;2023-02-17T04:18:52;77129.53;;;-142.13;67.74
11712;BME280;5912;51.034;6.984;2023-02-17T04:21:17;77131.53;;;-142.13;67.59
11712;BME280;5912;51.034;6.984;2023-02-17T04:23:43;77127.50;;;-142.13;67.43
11712;BME280;5912;51.034;6.984;2023-02-17T04:26:08;77127.50;;;-142.13;67.29
11712;BME280;5912;51.034;6.984;2023-02-17T04:28:37;77121.47;;;-142.13;67.41
11712;BME280;5912;51.034;6.984;2023-02-17T04:31:02;77123.47;;;-142.13;67.45
11712;BME280;5912;51.034;6.984;2023-02-17T04:33:27;77125.50;;;-142.13;67.52
11712;BME280;5912;51.034;6.984;2023-02-17T04:35:53;77129.53;;;-142.13;67.60
11712;BME280;5912;51.034;6.984;2023-02-17T04:38:24;77135.56;;;-142.13;67.69
11712;BME280;5912;51.034;6.984;2023-02-17T04:40:52;77135.56;;;-142.13;67.63
11712;BME280;5912;51.034;6.984;2023-02-17T04:43:17;77133.53;;;-142.13;67.53
11712;BME280;5912;51.034;6.984;2023-02-17T04:45:42;77131.53;;;-142.13;67.65
11712;BME280;5912;51.034;6.984;2023-02-17T04:48:08;77133.53;;;-142.13;67.46
11712;BME280;5912;51.034;6.984;2023-02-17T04:50:33;77129.53;;;-142.13;67.33
11712;BME280;5912;51.034;6.984;2023-02-17T04:52:58;77123.47;;;-142.13;67.28
11712;BME280;5912;51.034;6.984;2023-02-17T04:55:24;77121.47;;;-142.13;67.32
11712;BME280;5912;51.034;6.984;2023-02-17T04:57:49;77115.41;;;-142.13;67.04
11712;BME280;5912;51.034;6.984;2023-02-17T05:00:15;77113.41;;;-142.13;66.95
11712;BME280;5912;51.034;6.984;2023-02-17T05:02:40;77119.44;;;-142.13;67.11
11712;BME280;5912;51.034;6.984;2023-02-17T05:05:06;77117.44;;;-142.13;67.13
11712;BME280;5912;51.034;6.984;2023-02-17T05:07:31;77109.38;;;-142.13;66.98
11712;BME280;5912;51.034;6.984;2023-02-17T05:09:56;77111.41;;;-142.13;67.07
11712;BME280;5912;51.034;6.984;2023-02-17T05:15:25;77115.41;;;-142.13;67.08
11712;BME280;5912;51.034;6.984;2023-02-17T05:17:50;77113.41;;;-142.13;66.62
11712;BME280;5912;51.034;6.984;2023-02-17T05:20:16;77115.41;;;-142.13;66.97
11712;BME280;5912;51.034;6.984;2023-02-17T05:22:41;77119.44;;;-142.13;67.20
11712;BME280;5912;51.034;6.984;2023-02-17T05:28:16;77119.44;;;-142.13;66.70
11712;BME280;5912;51.034;6.984;2023-02-17T05:30:41;77117.44;;;-142.13;66.91
11712;BME280;5912;51.034;6.984;2023-02-17T05:33:06;77121.47;;;-142.13;67.02
11712;BME280;5912;51.034;6.984;2023-02-17T05:35:33;77115.41;;;-142.13;67.09
11712;BME280;5912;51.034;6.984;2023-02-17T05:37:59;77117.44;;;-142.13;67.07
11712;BME280;5912;51.034;6.984;2023-02-17T05:40:24;77109.38;;;-142.13;67.18
11712;BME280;5912;51.034;6.984;2023-02-17T05:42:49;77111.41;;;-142.13;67.17
11712;BME280;5912;51.034;6.984;2023-02-17T05:45:15;77101.31;;;-142.13;66.89
11712;BME280;5912;51.034;6.984;2023-02-17T05:47:40;77103.34;;;-142.13;66.80
11712;BME280;5912;51.034;6.984;2023-02-17T05:50:06;77111.41;;;-142.13;66.95
11712;BME280;5912;51.034;6.984;2023-02-17T05:52:31;77107.38;;;-142.13;67.04
11712;BME280;5912;51.034;6.984;2023-02-17T05:54:56;77097.31;;;-142.13;66.94
11712;BME280;5912;51.034;6.984;2023-02-17T05:57:22;77095.28;;;-142.13;66.99
11712;BME280;5912;51.034;6.984;2023-02-17T05:59:47;77093.28;;;-142.13;66.83
11712;BME280;5912;51.034;6.984;2023-02-17T06:02:12;77089.25;;;-142.13;67.16
11712;BME280;5912;51.034;6.984;2023-02-17T06:04:38;77087.22;;;-142.13;67.07
11712;BME280;5912;51.034;6.984;2023-02-17T06:07:03;77083.19;;;-142.13;67.07
11712;BME280;5912;51.034;6.984;2023-02-17T06:09:28;77093.28;;;-142.13;67.06
11712;BME280;5912;51.034;6.984;2023-02-17T06:11:54;77093.28;;;-142.13;67.23
11712;BME280;5912;51.034;6.984;2023-02-17T06:14:19;77093.28;;;-142.13;67.24
11712;BME280;5912;51.034;6.984;2023-02-17T06:16:44;77091.25;;;-142.13;67.37
11712;BME280;5912;51.034;6.984;2023-02-17T06:19:10;77093.28;;;-142.13;67.18
11712;BME280;5912;51.034;6.984;2023-02-17T06:21:35;77091.25;;;-142.13;67.30
11712;BME280;5912;51.034;6.984;2023-02-17T06:24:01;77091.25;;;-142.13;67.39
11712;BME280;5912;51.034;6.984;2023-02-17T06:26:26;77087.22;;;-142.13;67.23
11712;BME280;5912;51.034;6.984;2023-02-17T06:28:52;77077.16;;;-142.13;67.31
11712;BME280;5912;51.034;6.984;2023-02-17T06:31:17;77085.22;;;-142.13;67.28
11712;BME280;5912;51.034;6.984;2023-02-17T06:33:42;77071.13;;;-142.13;67.44
11712;BME280;5912;51.034;6.984;2023-02-17T06:36:07;77075.16;;;-142.13;67.35
11712;BME280;5912;51.034;6.984;2023-02-17T06:38:33;77077.16;;;-142.13;67.50
11712;BME280;5912;51.034;6.984;2023-02-17T06:40:58;77067.09;;;-142.13;67.53
11712;BME280;5912;51.034;6.984;2023-02-17T06:43:24;77063.06;;;-142.13;67.54
11712;BME280;5912;51.034;6.984;2023-02-17T06:45:52;77067.09;;;-142.13;67.67
11712;BME280;5912;51.034;6.984;2023-02-17T06:48:17;77067.09;;;-142.13;67.63
11712;BME280;5912;51.034;6.984;2023-02-17T06:50:43;77067.09;;;-142.13;67.64
11712;BME280;5912;51.034;6.984;2023-02-17T06:53:08;77063.06;;;-142.13;67.73
11712;BME280;5912;51.034;6.984;2023-02-17T06:55:33;77071.13;;;-142.13;67.63
11712;BME280;5912;51.034;6.984;2023-02-17T06:58:01;77075.16;;;-142.13;68.23
11712;BME280;5912;51.034;6.984;2023-02-17T07:00:26;77063.06;;;-142.13;68.38
11712;BME280;5912;51.034;6.984;2023-02-17T07:02:52;77061.06;;;-142.13;68.45
11712;BME280;5912;51.034;6.984;2023-02-17T07:05:17;77061.06;;;-142.13;68.47
11712;BME280;5912;51.034;6.984;2023-02-17T07:07:42;77053.00;;;-142.13;68.72
11712;BME280;5912;51.034;6.984;2023-02-17T07:10:08;77055.00;;;-142.13;68.74
11712;BME280;5912;51.034;6.984;2023-02-17T07:12:33;77053.00;;;-142.13;68.86
11712;BME280;5912;51.034;6.984;2023-02-17T07:14:59;77050.97;;;-142.13;69.04
11712;BME280;5912;51.034;6.984;2023-02-17T07:17:24;77044.94;;;-142.13;70.09
11712;BME280;5912;51.034;6.984;2023-02-17T07:19:50;77057.03;;;-142.13;70.73
11712;BME280;5912;51.034;6.984;2023-02-17T07:22:15;77061.06;;;-142.13;70.67
11712;BME280;5912;51.034;6.984;2023-02-17T07:24:41;77055.00;;;-142.13;71.12
11712;BME280;5912;51.034;6.984;2023-02-17T07:27:06;77053.00;;;-142.13;71.59
11712;BME280;5912;51.034;6.984;2023-02-17T07:29:33;77063.06;;;-142.13;71.38
11712;BME280;5912;51.034;6.984;2023-02-17T07:31:58;77067.09;;;-142.13;71.61
11712;BME280;5912;51.034;6.984;2023-02-17T07:34:23;77071.13;;;-142.13;71.64
11712;BME280;5912;51.034;6.984;2023-02-17T07:36:49;77075.16;;;-142.13;71.74
11712;BME280;5912;51.034;6.984;2023-02-17T07:39:14;77077.16;;;-142.13;71.97
11712;BME280;5912;51.034;6.984;2023-02-17T07:41:40;77073.13;;;-142.13;71.92
11712;BME280;5912;51.034;6.984;2023-02-17T07:44:05;77073.13;;;-142.13;71.91
11712;BME280;5912;51.034;6.984;2023-02-17T07:46:30;77075.16;;;-142.13;71.90
11712;BME280;5912;51.034;6.984;2023-02-17T07:48:56;77061.06;;;-142.13;72.10
11712;BME280;5912;51.034;6.984;2023-02-17T07:51:22;77071.13;;;-142.13;72.00
11712;BME280;5912;51.034;6.984;2023-02-17T07:53:49;77071.13;;;-142.13;71.90
11712;BME280;5912;51.034;6.984;2023-02-17T07:56:17;77063.06;;;-142.13;71.79
11712;BME280;5912;51.034;6.984;2023-02-17T07:58:43;77069.09;;;-142.13;71.78
11712;BME280;5912;51.034;6.984;2023-02-17T08:03:36;77071.13;;;-142.13;71.75
11712;BME280;5912;51.034;6.984;2023-02-17T08:06:02;77061.06;;;-142.13;71.52
11712;BME280;5912;51.034;6.984;2023-02-17T08:08:27;77061.06;;;-142.13;71.53
11712;BME280;5912;51.034;6.984;2023-02-17T08:11:12;77048.97;;;-142.13;71.36
11712;BME280;5912;51.034;6.984;2023-02-17T08:13:57;77053.00;;;-142.13;71.02
11712;BME280;5912;51.034;6.984;2023-02-17T08:16:22;77048.97;;;-142.13;71.35
11712;BME280;5912;51.034;6.984;2023-02-17T08:18:51;77034.88;;;-142.13;70.83
11712;BME280;5912;51.034;6.984;2023-02-17T08:21:16;77044.94;;;-142.13;70.98
11712;BME280;5912;51.034;6.984;2023-02-17T08:23:41;77048.97;;;-142.13;71.18
11712;BME280;5912;51.034;6.984;2023-02-17T08:26:06;77042.94;;;-142.13;71.28
11712;BME280;5912;51.034;6.984;2023-02-17T08:28:32;77038.91;;;-142.13;71.06
11712;BME280;5912;51.034;6.984;2023-02-17T08:30:57;77030.84;;;-142.13;71.00
11712;BME280;5912;51.034;6.984;2023-02-17T08:33:22;77022.78;;;-142.13;70.73
11712;BME280;5912;51.034;6.984;2023-02-17T08:35:48;77020.78;;;-142.13;70.97
11712;BME280;5912;51.034;6.984;2023-02-17T08:38:13;77010.72;;;-142.13;70.51
11712;BME280;5912;51.034;6.984;2023-02-17T08:40:38;77014.75;;;-142.13;70.37
11712;BME280;5912;51.034;6.984;2023-02-17T08:43:06;76998.63;;;-142.13;69.99
11712;BME280;5912;51.034;6.984;2023-02-17T08:45:32;76982.53;;;-142.13;69.54
11712;BME280;5912;51.034;6.984;2023-02-17T08:47:57;76972.47;;;-142.13;68.58
11712;BME280;5912;51.034;6.984;2023-02-17T08:50:23;76956.34;;;-142.13;68.69
11712;BME280;5912;51.034;6.984;2023-02-17T08:52:48;76944.25;;;-142.13;68.40
11712;BME280;5912;51.034;6.984;2023-02-17T08:55:13;76944.25;;;-142.13;68.59
11712;BME280;5912;51.034;6.984;2023-02-17T08:57:39;76938.22;;;-142.13;68.56
11712;BME280;5912;51.034;6.984;2023-02-17T09:00:06;76916.06;;;-142.13;68.54
11712;BME280;5912;51.034;6.984;2023-02-17T09:02:33;76895.94;;;-142.13;67.44
11712;BME280;5912;51.034;6.984;2023-02-17T09:04:59;76887.88;;;-142.13;66.95
11712;BME280;5912;51.034;6.984;2023-02-17T09:07:25;76869.75;;;-142.13;66.62
11712;BME280;5912;51.034;6.984;2023-02-17T09:09:50;76865.75;;;-142.13;65.96
11712;BME280;5912;51.034;6.984;2023-02-17T09:12:16;76865.75;;;-142.13;65.32
11712;BME280;5912;51.034;6.984;2023-02-17T09:14:41;76855.66;;;-142.13;64.89
11712;BME280;5912;51.034;6.984;2023-02-17T09:17:06;76847.63;;;-142.13;64.72
11712;BME280;5912;51.034;6.984;2023-02-17T09:19:31;76829.50;;;-142.13;64.83
11712;BME280;5912;51.034;6.984;2023-02-17T09:21:57;76813.38;;;-142.13;63.34
11712;BME280;5912;51.034;6.984;2023-02-17T09:24:23;76801.31;;;-142.13;62.57
11712;BME280;5912;51.034;6.984;2023-02-17T09:26:55;76793.25;;;-142.13;61.81
11712;BME280;5912;51.034;6.984;2023-02-17T09:29:20;76797.28;;;-142.13;61.57
11712;BME280;5912;51.034;6.984;2023-02-17T09:31:46;76787.22;;;-142.13;61.27
11712;BME280;5912;51.034;6.984;2023-02-17T09:34:12;76777.13;;;-142.13;61.75
11712;BME280;5912;51.034;6.984;2023-02-17T09:36:39;76765.06;;;-142.13;60.82
11712;BME280;5912;51.034;6.984;2023-02-17T09:39:05;76757.00;;;-142.13;60.44
11712;BME280;5912;51.034;6.984;2023-02-17T09:41:47;76738.88;;;-142.13;60.53
11712;BME280;5912;51.034;6.984;2023-02-17T09:44:34;76728.81;;;-142.13;59.81
11712;BME280;5912;51.034;6.984;2023-02-17T09:47:17;76730.84;;;-142.13;58.81
11712;BME280;5912;51.034;6.984;2023-02-17T09:49:47;76710.69;;;-142.13;58.69
11712;BME280;5912;51.034;6.984;2023-02-17T09:52:24;76696.59;;;-142.13;58.77
11712;BME280;5912;51.034;6.984;2023-02-17T09:55:04;76676.47;;;-142.13;57.47
11712;BME280;5912;51.034;6.984;2023-02-17T09:57:35;76640.22;;;-142.13;57.22
11712;BME280;5912;51.034;6.984;2023-02-17T10:00:10;76616.06;;;-142.13;55.49
11712;BME280;5912;51.034;6.984;2023-02-17T10:05:17;76575.81;;;-142.13;54.42
11712;BME280;5912;51.034;6.984;2023-02-17T10:07:54;76551.63;;;-142.13;53.56
11712;BME280;5912;51.034;6.984;2023-02-17T10:10:32;76545.59;;;-142.13;52.60
11712;BME280;5912;51.034;6.984;2023-02-17T10:13:01;76569.75;;;-142.13;52.15
11712;BME280;5912;51.034;6.984;2023-02-17T10:15:32;76559.69;;;-142.13;52.14
11712;BME280;5912;51.034;6.984;2023-02-17T10:20:54;76527.47;;;-142.13;51.45
11712;BME280;5912;51.034;6.984;2023-02-17T10:23:23;76533.50;;;-142.13;51.12
11712;BME280;5912;51.034;6.984;2023-02-17T10:26:06;76523.44;;;-142.13;51.25
11712;BME280;5912;51.034;6.984;2023-02-17T10:28:48;76521.44;;;-142.13;51.26
11712;BME280;5912;51.034;6.984;2023-02-17T10:31:23;76519.41;;;-142.13;51.38
11712;BME280;5912;51.034;6.984;2023-02-17T10:38:52;76513.38;;;-142.13;51.10
11712;BME280;5912;51.034;6.984;2023-02-17T10:41:32;76461.03;;;-142.13;50.41
11712;BME280;5912;51.034;6.984;2023-02-17T10:44:00;76402.66;;;-142.13;48.82
11712;BME280;5912;51.034;6.984;2023-02-17T10:46:28;76378.50;;;-142.13;47.29
11712;BME280;5912;51.034;6.984;2023-02-17T10:48:56;76368.44;;;-142.13;46.78
11712;BME280;5912;51.034;6.984;2023-02-17T10:51:26;76366.41;;;-142.13;46.49
11712;BME280;5912;51.034;6.984;2023-02-17T10:53:57;76378.50;;;-142.13;47.08
11712;BME280;5912;51.034;6.984;2023-02-17T10:56:37;76406.69;;;-142.13;46.98
11712;BME280;5912;51.034;6.984;2023-02-17T10:59:19;76426.81;;;-142.13;47.53
11712;BME280;5912;51.034;6.984;2023-02-17T11:01:46;76455.00;;;-142.13;48.73
11712;BME280;5912;51.034;6.984;2023-02-17T11:04:12;76471.09;;;-142.13;48.69
11712;BME280;5912;51.034;6.984;2023-02-17T11:06:43;76501.31;;;-142.13;49.31
11712;BME280;5912;51.034;6.984;2023-02-17T11:09:23;76535.53;;;-142.13;50.20
11712;BME280;5912;51.034;6.984;2023-02-17T11:12:10;76563.72;;;-142.13;51.38
11712;BME280;5912;51.034;6.984;2023-02-17T11:14:36;76557.69;;;-142.13;52.05
11712;BME280;5912;51.034;6.984;2023-02-17T11:17:12;76581.84;;;-142.13;52.66
11712;BME280;5912;51.034;6.984;2023-02-17T11:19:39;76587.88;;;-142.13;53.73
11712;BME280;5912;51.034;6.984;2023-02-17T11:22:17;76601.97;;;-142.13;54.06
11712;BME280;5912;51.034;6.984;2023-02-17T11:25:00;76603.97;;;-142.13;54.47
11712;BME280;5912;51.034;6.984;2023-02-17T11:27:26;76612.03;;;-142.13;54.37
11712;BME280;5912;51.034;6.984;2023-02-17T11:29:51;76624.13;;;-142.13;54.67
11712;BME280;5912;51.034;6.984;2023-02-17T11:32:17;76622.09;;;-142.13;54.70
11712;BME280;5912;51.034;6.984;2023-02-17T11:34:55;76612.03;;;-142.13;54.82
11712;BME280;5912;51.034;6.984;2023-02-17T11:37:22;76601.97;;;-142.13;54.86
11712;BME280;5912;51.034;6.984;2023-02-17T11:39:53;76583.84;;;-142.13;54.53
11712;BME280;5912;51.034;6.984;2023-02-17T11:42:22;76583.84;;;-142.13;54.30
11712;BME280;5912;51.034;6.984;2023-02-17T11:44:49;76565.72;;;-142.13;54.12
11712;BME280;5912;51.034;6.984;2023-02-17T11:55:34;76537.53;;;-142.13;52.06
11712;BME280;5912;51.034;6.984;2023-02-17T12:00:50;76513.38;;;-142.13;51.32
11712;BME280;5912;51.034;6.984;2023-02-17T12:09:02;76521.44;;;-142.13;51.31
11712;BME280;5912;51.034;6.984;2023-02-17T12:11:36;76523.44;;;-142.13;50.99
11712;BME280;5912;51.034;6.984;2023-02-17T12:17:44;76519.41;;;-142.13;50.72
11712;BME280;5912;51.034;6.984;2023-02-17T12:20:38;76517.41;;;-142.13;50.95
11712;BME280;5912;51.034;6.984;2023-02-17T12:28:51;76557.69;;;-142.13;51.00
11712;BME280;5912;51.034;6.984;2023-02-17T12:34:20;76535.53;;;-142.13;51.60
11712;BME280;5912;51.034;6.984;2023-02-17T12:36:49;76511.38;;;-142.13;50.73
11712;BME280;5912;51.034;6.984;2023-02-17T12:39:21;76509.34;;;-142.13;50.46
11712;BME280;5912;51.034;6.984;2023-02-17T12:41:53;76499.28;;;-142.13;50.91
11712;BME280;5912;51.034;6.984;2023-02-17T12:44:28;76495.25;;;-142.13;50.48
11712;BME280;5912;51.034;6.984;2023-02-17T12:47:00;76513.38;;;-142.13;50.64
11712;BME280;5912;51.034;6.984;2023-02-17T12:49:33;76525.47;;;-142.13;50.03
11712;BME280;5912;51.034;6.984;2023-02-17T12:52:12;76499.28;;;-142.13;49.96
11712;BME280;5912;51.034;6.984;2023-02-17T12:59:36;76378.50;;;-142.13;48.53
11712;BME280;5912;51.034;6.984;2023-02-17T13:02:13;76342.25;;;-142.13;47.62
11712;BME280;5912;51.034;6.984;2023-02-17T13:04:41;76322.13;;;-142.13;46.79
11712;BME280;5912;51.034;6.984;2023-02-17T13:07:19;76306.00;;;-142.13;46.59
11712;BME280;5912;51.034;6.984;2023-02-17T13:09:48;76334.19;;;-142.13;46.43
11712;BME280;5912;51.034;6.984;2023-02-17T13:14:55;76374.47;;;-142.13;47.33
11712;BME280;5912;51.034;6.984;2023-02-17T13:18:01;76394.59;;;-142.13;48.08
11712;BME280;5912;51.034;6.984;2023-02-17T13:20:40;76416.75;;;-142.13;48.81
11712;BME280;5912;51.034;6.984;2023-02-17T13:23:13;76434.88;;;-142.13;49.56
11712;BME280;5912;51.034;6.984;2023-02-17T13:25:39;76438.88;;;-142.13;49.96
11712;BME280;5912;51.034;6.984;2023-02-17T13:28:31;76450.97;;;-142.13;50.55
11712;BME280;5912;51.034;6.984;2023-02-17T13:31:10;76485.19;;;-142.13;51.15
11712;BME280;5912;51.034;6.984;2023-02-17T13:33:47;76481.16;;;-142.13;50.86
11712;BME280;5912;51.034;6.984;2023-02-17T13:36:20;76487.22;;;-142.13;51.03
11712;BME280;5912;51.034;6.984;2023-02-17T13:39:04;76477.16;;;-142.13;50.81
11712;BME280;5912;51.034;6.984;2023-02-17T13:41:43;76491.25;;;-142.13;50.61
11712;BME280;5912;51.034;6.984;2023-02-17T13:44:24;76499.28;;;-142.13;51.18
11712;BME280;5912;51.034;6.984;2023-02-17T13:46:50;76501.31;;;-142.13;51.30
11712;BME280;5912;51.034;6.984;2023-02-17T13:49:24;76495.25;;;-142.13;51.69
11712;BME280;5912;51.034;6.984;2023-02-17T13:51:52;76531.50;;;-142.13;51.76
11712;BME280;5912;51.034;6.984;2023-02-17T13:54:20;76535.53;;;-142.13;52.15
11712;BME280;5912;51.034;6.984;2023-02-17T13:56:52;76551.63;;;-142.13;52.93
11712;BME280;5912;51.034;6.984;2023-02-17T13:59:24;76553.66;;;-142.13;53.39
11712;BME280;5912;51.034;6.984;2023-02-17T14:01:50;76557.69;;;-142.13;53.79
11712;BME280;5912;51.034;6.984;2023-02-17T14:04:20;76571.78;;;-142.13;54.06
11712;BME280;5912;51.034;6.984;2023-02-17T14:06:46;76579.81;;;-142.13;54.41
11712;BME280;5912;51.034;6.984;2023-02-17T14:09:19;76591.91;;;-142.13;54.34
11712;BME280;5912;51.034;6.984;2023-02-17T14:11:46;76595.94;;;-142.13;54.64
11712;BME280;5912;51.034;6.984;2023-02-17T14:14:11;76608.00;;;-142.13;54.87